KLM1169 EHAM-ENBR
Flight info
| Callsign | KLM1169 |
|---|---|
| Flight time | 1h 22m |
| Altitude | 34000 |
| Route | BERGI M90 LONAM DCT LARGA/N0456F350 DCT PENUN/N0453F360 DCT ALUVA |
| Aircraft | A21N/M-SDE2E3FGHIRWXY/LB1 |
Departure
| Time | 2026-04-28 17:32 |
|---|---|
| Airport | Amsterdam Airport Schiphol (EHAM) |
Arrival
| Time | 2026-04-28 18:55 |
|---|---|
| Airport | Bergen Airport, Flesland (ENBR) |
| Time | Latitude | Longitude | Altitude | Speed | Heading |
|---|---|---|---|---|---|
| 2026-04-28 16:56 | 52.30921 | 4.76713 | 4 ft | 0 kts | 183° |
| 2026-04-28 17:19 | 52.30929 | 4.76714 | 4 ft | 4 kts | 182° |
| 2026-04-28 17:20 | 52.30956 | 4.76716 | 4 ft | 4 kts | 188° |
| 2026-04-28 17:20 | 52.30973 | 4.76723 | 4 ft | 4 kts | 206° |
| 2026-04-28 17:20 | 52.30996 | 4.76750 | 4 ft | 4 kts | 237° |
| 2026-04-28 17:20 | 52.31003 | 4.76777 | 4 ft | 4 kts | 237° |
| 2026-04-28 17:21 | 52.31017 | 4.76798 | 4 ft | 3 kts | 213° |
| 2026-04-28 17:21 | 52.31040 | 4.76821 | 4 ft | 4 kts | 211° |
| 2026-04-28 17:21 | 52.31062 | 4.76845 | 4 ft | 4 kts | 218° |
| 2026-04-28 17:22 | 52.31087 | 4.76909 | 4 ft | 4 kts | 271° |
| 2026-04-28 17:22 | 52.31085 | 4.76948 | 4 ft | 2 kts | 272° |
| 2026-04-28 17:22 | 52.31084 | 4.76989 | 4 ft | 4 kts | 273° |
| 2026-04-28 17:23 | 52.31081 | 4.77056 | 4 ft | 1 kts | 274° |
| 2026-04-28 17:25 | 52.31082 | 4.77043 | 4 ft | 3 kts | 274° |
| 2026-04-28 17:25 | 52.31138 | 4.76948 | 4 ft | 11 kts | 8° |
| 2026-04-28 17:25 | 52.31216 | 4.77012 | 4 ft | 14 kts | 33° |
| 2026-04-28 17:26 | 52.31303 | 4.77106 | 4 ft | 16 kts | 34° |
| 2026-04-28 17:26 | 52.31406 | 4.77190 | 4 ft | 18 kts | 4° |
| 2026-04-28 17:26 | 52.31533 | 4.77198 | 4 ft | 19 kts | 346° |
| 2026-04-28 17:26 | 52.31566 | 4.77006 | 4 ft | 20 kts | 266° |
| 2026-04-28 17:27 | 52.31557 | 4.76770 | 4 ft | 22 kts | 266° |
| 2026-04-28 17:27 | 52.31547 | 4.76518 | 5 ft | 23 kts | 266° |
| 2026-04-28 17:27 | 52.31540 | 4.76251 | 5 ft | 24 kts | 267° |
| 2026-04-28 17:27 | 52.31529 | 4.75969 | 5 ft | 25 kts | 267° |
| 2026-04-28 17:28 | 52.31520 | 4.75673 | 4 ft | 27 kts | 266° |
| 2026-04-28 17:28 | 52.31499 | 4.75076 | 4 ft | 25 kts | 266° |
| 2026-04-28 17:28 | 52.31492 | 4.74859 | 4 ft | 19 kts | 267° |
| 2026-04-28 17:29 | 52.31517 | 4.74671 | 4 ft | 14 kts | 337° |
| 2026-04-28 17:29 | 52.31553 | 4.74662 | 4 ft | 0 kts | 359° |
| 2026-04-28 17:31 | 52.31569 | 4.74662 | 5 ft | 4 kts | 359° |
| 2026-04-28 17:31 | 52.31666 | 4.74742 | 5 ft | 14 kts | 78° |
| 2026-04-28 17:32 | 52.31699 | 4.75687 | 4 ft | 97 kts | 85° |
| 2026-04-28 17:32 | 52.31748 | 4.77087 | 5 ft | 148 kts | 85° |
| 2026-04-28 17:32 | 52.31809 | 4.78785 | 407 ft | 152 kts | 81° |
| 2026-04-28 17:32 | 52.31973 | 4.80539 | 827 ft | 161 kts | 68° |
| 2026-04-28 17:33 | 52.32686 | 4.82022 | 1258 ft | 179 kts | 36° |
| 2026-04-28 17:33 | 52.33966 | 4.82559 | 1634 ft | 210 kts | 359° |
| 2026-04-28 17:33 | 52.35403 | 4.81732 | 2366 ft | 228 kts | 341° |
| 2026-04-28 17:33 | 52.35865 | 4.81354 | 2645 ft | 230 kts | 340° |
| 2026-04-28 17:34 | 52.38280 | 4.79366 | 4053 ft | 238 kts | 337° |
| 2026-04-28 17:34 | 52.39644 | 4.77699 | 4759 ft | 256 kts | 320° |
| 2026-04-28 17:34 | 52.40945 | 4.75556 | 5326 ft | 273 kts | 317° |
| 2026-04-28 17:34 | 52.42291 | 4.73295 | 6032 ft | 281 kts | 317° |
| 2026-04-28 17:35 | 52.43674 | 4.70986 | 6808 ft | 286 kts | 318° |
| 2026-04-28 17:35 | 52.45073 | 4.68650 | 7606 ft | 289 kts | 318° |
| 2026-04-28 17:35 | 52.46535 | 4.66385 | 8465 ft | 288 kts | 327° |
| 2026-04-28 17:35 | 52.48289 | 4.64872 | 9322 ft | 285 kts | 341° |
| 2026-04-28 17:36 | 52.50152 | 4.63689 | 10174 ft | 289 kts | 342° |
| 2026-04-28 17:36 | 52.52080 | 4.62530 | 10691 ft | 304 kts | 344° |
| 2026-04-28 17:36 | 52.54153 | 4.61387 | 11009 ft | 325 kts | 345° |
| 2026-04-28 17:36 | 52.56338 | 4.60203 | 11301 ft | 345 kts | 346° |
| 2026-04-28 17:37 | 52.58716 | 4.58915 | 11578 ft | 365 kts | 345° |
| 2026-04-28 17:37 | 52.61150 | 4.57587 | 11839 ft | 382 kts | 344° |
| 2026-04-28 17:37 | 52.63717 | 4.56176 | 12096 ft | 396 kts | 344° |
| 2026-04-28 17:37 | 52.66354 | 4.54722 | 12504 ft | 403 kts | 344° |
| 2026-04-28 17:38 | 52.69024 | 4.53244 | 13040 ft | 405 kts | 345° |
| 2026-04-28 17:38 | 52.71699 | 4.51770 | 13632 ft | 406 kts | 343° |
| 2026-04-28 17:38 | 52.74390 | 4.50282 | 14152 ft | 409 kts | 345° |
| 2026-04-28 17:38 | 52.76180 | 4.49293 | 14429 ft | 410 kts | 345° |
| 2026-04-28 17:39 | 52.78889 | 4.47795 | 14865 ft | 413 kts | 345° |
| 2026-04-28 17:39 | 52.81628 | 4.46283 | 15290 ft | 416 kts | 344° |
| 2026-04-28 17:39 | 52.88052 | 4.42715 | 16264 ft | 422 kts | 345° |
| 2026-04-28 17:40 | 52.89939 | 4.41699 | 16514 ft | 422 kts | 346° |
| 2026-04-28 17:40 | 52.93684 | 4.39844 | 16982 ft | 425 kts | 346° |
| 2026-04-28 17:40 | 52.96521 | 4.38446 | 17405 ft | 426 kts | 346° |
| 2026-04-28 17:40 | 52.98442 | 4.37492 | 17677 ft | 426 kts | 346° |
| 2026-04-28 17:41 | 53.01250 | 4.36093 | 18039 ft | 428 kts | 346° |
| 2026-04-28 17:41 | 53.04107 | 4.34675 | 18382 ft | 431 kts | 345° |
| 2026-04-28 17:41 | 53.06986 | 4.33242 | 18719 ft | 432 kts | 346° |
| 2026-04-28 17:41 | 53.09876 | 4.31801 | 19053 ft | 434 kts | 347° |
| 2026-04-28 17:42 | 53.12769 | 4.30370 | 19365 ft | 435 kts | 347° |
| 2026-04-28 17:42 | 53.15678 | 4.28925 | 19682 ft | 437 kts | 346° |
| 2026-04-28 17:42 | 53.18600 | 4.27460 | 20015 ft | 439 kts | 346° |
| 2026-04-28 17:42 | 53.21517 | 4.25985 | 20415 ft | 438 kts | 346° |
| 2026-04-28 17:43 | 53.24438 | 4.24516 | 20735 ft | 439 kts | 346° |
| 2026-04-28 17:43 | 53.27336 | 4.23056 | 21051 ft | 441 kts | 347° |
| 2026-04-28 17:43 | 53.30283 | 4.21589 | 21428 ft | 443 kts | 347° |
| 2026-04-28 17:43 | 53.33240 | 4.20100 | 21801 ft | 445 kts | 346° |
| 2026-04-28 17:44 | 53.36207 | 4.18598 | 22147 ft | 447 kts | 346° |
| 2026-04-28 17:44 | 53.39193 | 4.17092 | 22492 ft | 449 kts | 346° |
| 2026-04-28 17:44 | 53.42191 | 4.15569 | 22830 ft | 451 kts | 347° |
| 2026-04-28 17:44 | 53.45205 | 4.14040 | 23175 ft | 453 kts | 347° |
| 2026-04-28 17:45 | 53.48229 | 4.12511 | 23510 ft | 455 kts | 347° |
| 2026-04-28 17:45 | 53.51267 | 4.10971 | 23819 ft | 458 kts | 347° |
| 2026-04-28 17:45 | 53.54327 | 4.09417 | 24115 ft | 460 kts | 347° |
| 2026-04-28 17:45 | 53.57401 | 4.07862 | 24418 ft | 462 kts | 347° |
| 2026-04-28 17:46 | 53.60475 | 4.06300 | 24814 ft | 460 kts | 348° |
| 2026-04-28 17:46 | 53.63494 | 4.04760 | 25226 ft | 459 kts | 348° |
| 2026-04-28 17:46 | 53.66542 | 4.03201 | 25637 ft | 457 kts | 348° |
| 2026-04-28 17:46 | 53.69575 | 4.01646 | 26083 ft | 455 kts | 348° |
| 2026-04-28 17:47 | 53.72593 | 4.00096 | 26529 ft | 452 kts | 348° |
| 2026-04-28 17:47 | 53.75600 | 3.98551 | 26947 ft | 451 kts | 348° |
| 2026-04-28 17:47 | 53.78597 | 3.97006 | 27369 ft | 449 kts | 349° |
| 2026-04-28 17:47 | 53.80575 | 3.95992 | 27627 ft | 448 kts | 349° |
| 2026-04-28 17:48 | 53.84615 | 3.94746 | 28136 ft | 436 kts | 2° |
| 2026-04-28 17:48 | 53.87616 | 3.94923 | 28529 ft | 428 kts | 11° |
| 2026-04-28 17:48 | 53.90527 | 3.95498 | 28934 ft | 426 kts | 12° |
| 2026-04-28 17:48 | 53.93463 | 3.96117 | 29325 ft | 424 kts | 12° |
| 2026-04-28 17:49 | 53.96385 | 3.96722 | 29754 ft | 422 kts | 12° |
| 2026-04-28 17:49 | 53.99298 | 3.97318 | 30194 ft | 420 kts | 12° |
| 2026-04-28 17:49 | 54.02190 | 3.97905 | 30597 ft | 418 kts | 12° |
| 2026-04-28 17:49 | 54.05072 | 3.98496 | 30931 ft | 417 kts | 12° |
| 2026-04-28 17:50 | 54.07946 | 3.99080 | 31259 ft | 415 kts | 12° |
| 2026-04-28 17:50 | 54.10812 | 3.99659 | 31590 ft | 414 kts | 12° |
| 2026-04-28 17:50 | 54.13675 | 4.00238 | 31909 ft | 413 kts | 12° |
| 2026-04-28 17:50 | 54.16478 | 4.00808 | 32224 ft | 412 kts | 12° |
| 2026-04-28 17:51 | 54.19320 | 4.01389 | 32533 ft | 410 kts | 11° |
| 2026-04-28 17:51 | 54.22150 | 4.01970 | 32854 ft | 409 kts | 11° |
| 2026-04-28 17:51 | 54.24964 | 4.02550 | 33157 ft | 407 kts | 11° |
| 2026-04-28 17:51 | 54.27774 | 4.03125 | 33463 ft | 406 kts | 11° |
| 2026-04-28 17:52 | 54.30576 | 4.03697 | 33747 ft | 405 kts | 11° |
| 2026-04-28 17:52 | 54.33372 | 4.04273 | 34018 ft | 404 kts | 11° |
| 2026-04-28 17:52 | 54.38937 | 4.05422 | 34476 ft | 403 kts | 11° |
| 2026-04-28 17:53 | 54.44485 | 4.06565 | 34480 ft | 403 kts | 11° |
| 2026-04-28 17:53 | 54.50048 | 4.07717 | 34479 ft | 403 kts | 11° |
| 2026-04-28 17:54 | 54.55612 | 4.08869 | 34478 ft | 403 kts | 11° |
| 2026-04-28 17:54 | 54.61173 | 4.10025 | 34478 ft | 403 kts | 11° |
| 2026-04-28 17:55 | 54.66700 | 4.11182 | 34477 ft | 402 kts | 11° |
| 2026-04-28 17:55 | 54.72258 | 4.12344 | 34483 ft | 402 kts | 11° |
| 2026-04-28 17:56 | 54.77811 | 4.13516 | 34485 ft | 402 kts | 11° |
| 2026-04-28 17:56 | 54.83365 | 4.14691 | 34487 ft | 402 kts | 11° |
| 2026-04-28 17:57 | 54.88896 | 4.16046 | 34490 ft | 401 kts | 13° |
| 2026-04-28 17:57 | 54.94402 | 4.17629 | 34481 ft | 401 kts | 12° |
| 2026-04-28 17:58 | 54.99849 | 4.19192 | 34492 ft | 399 kts | 13° |
| 2026-04-28 17:58 | 55.05329 | 4.20768 | 34493 ft | 399 kts | 13° |
| 2026-04-28 17:59 | 55.10803 | 4.22399 | 34496 ft | 399 kts | 13° |
| 2026-04-28 17:59 | 55.16281 | 4.23970 | 34496 ft | 399 kts | 13° |
| 2026-04-28 18:00 | 55.21756 | 4.25557 | 34503 ft | 397 kts | 13° |
| 2026-04-28 18:00 | 55.27195 | 4.27160 | 34508 ft | 397 kts | 13° |
| 2026-04-28 18:01 | 55.32607 | 4.28771 | 34506 ft | 397 kts | 13° |
| 2026-04-28 18:01 | 55.38053 | 4.30363 | 34505 ft | 397 kts | 13° |
| 2026-04-28 18:02 | 55.43508 | 4.31958 | 34512 ft | 397 kts | 12° |
| 2026-04-28 18:02 | 55.48945 | 4.33552 | 34509 ft | 396 kts | 12° |
| 2026-04-28 18:03 | 55.54343 | 4.35154 | 34517 ft | 396 kts | 12° |
| 2026-04-28 18:03 | 55.59776 | 4.36771 | 34516 ft | 396 kts | 12° |
| 2026-04-28 18:04 | 55.65211 | 4.38395 | 34518 ft | 396 kts | 12° |
| 2026-04-28 18:04 | 55.70649 | 4.40023 | 34514 ft | 396 kts | 12° |
| 2026-04-28 18:05 | 55.75159 | 4.41365 | 34521 ft | 395 kts | 12° |
| 2026-04-28 18:05 | 55.81499 | 4.43274 | 34525 ft | 395 kts | 12° |
| 2026-04-28 18:06 | 55.86928 | 4.44906 | 34525 ft | 395 kts | 12° |
| 2026-04-28 18:06 | 55.92317 | 4.46540 | 34533 ft | 395 kts | 12° |
| 2026-04-28 18:07 | 55.97741 | 4.48178 | 34534 ft | 395 kts | 12° |
| 2026-04-28 18:07 | 56.03167 | 4.49831 | 34534 ft | 395 kts | 12° |
| 2026-04-28 18:08 | 56.08588 | 4.51484 | 34535 ft | 395 kts | 12° |
| 2026-04-28 18:08 | 56.14007 | 4.53146 | 34535 ft | 395 kts | 12° |
| 2026-04-28 18:09 | 56.19433 | 4.54811 | 34535 ft | 395 kts | 12° |
| 2026-04-28 18:09 | 56.24819 | 4.56480 | 34534 ft | 395 kts | 12° |
| 2026-04-28 18:10 | 56.30234 | 4.58145 | 34535 ft | 395 kts | 12° |
| 2026-04-28 18:10 | 56.35646 | 4.59829 | 34563 ft | 396 kts | 12° |
| 2026-04-28 18:11 | 56.41075 | 4.61542 | 34542 ft | 397 kts | 12° |
| 2026-04-28 18:11 | 56.46521 | 4.63205 | 34541 ft | 396 kts | 12° |
| 2026-04-28 18:12 | 56.51913 | 4.64869 | 34538 ft | 394 kts | 12° |
| 2026-04-28 18:12 | 56.57316 | 4.66559 | 34540 ft | 394 kts | 12° |
| 2026-04-28 18:13 | 56.62715 | 4.68252 | 34541 ft | 394 kts | 12° |
| 2026-04-28 18:13 | 56.68125 | 4.69960 | 34540 ft | 395 kts | 12° |
| 2026-04-28 18:14 | 56.73539 | 4.71681 | 34540 ft | 395 kts | 12° |
| 2026-04-28 18:14 | 56.78903 | 4.73366 | 34541 ft | 393 kts | 12° |
| 2026-04-28 18:15 | 56.84285 | 4.75067 | 34544 ft | 393 kts | 12° |
| 2026-04-28 18:15 | 56.89675 | 4.76786 | 34543 ft | 393 kts | 12° |
| 2026-04-28 18:16 | 56.95056 | 4.78503 | 34542 ft | 393 kts | 12° |
| 2026-04-28 18:16 | 57.00440 | 4.80256 | 34547 ft | 393 kts | 12° |
| 2026-04-28 18:17 | 57.05771 | 4.81981 | 34546 ft | 390 kts | 12° |
| 2026-04-28 18:17 | 57.11135 | 4.83578 | 34544 ft | 392 kts | 7° |
| 2026-04-28 18:18 | 57.16599 | 4.83964 | 34546 ft | 393 kts | 4° |
| 2026-04-28 18:18 | 57.21147 | 4.84182 | 34549 ft | 393 kts | 5° |
| 2026-04-28 18:19 | 57.27536 | 4.84525 | 34549 ft | 393 kts | 5° |
| 2026-04-28 18:19 | 57.32946 | 4.84821 | 34547 ft | 391 kts | 4° |
| 2026-04-28 18:20 | 57.38388 | 4.85122 | 34549 ft | 391 kts | 5° |
| 2026-04-28 18:20 | 57.43821 | 4.85424 | 34549 ft | 391 kts | 5° |
| 2026-04-28 18:21 | 57.49263 | 4.85736 | 34549 ft | 391 kts | 5° |
| 2026-04-28 18:21 | 57.54659 | 4.86037 | 34549 ft | 391 kts | 5° |
| 2026-04-28 18:22 | 57.60082 | 4.86343 | 34549 ft | 388 kts | 4° |
| 2026-04-28 18:22 | 57.65484 | 4.86649 | 34546 ft | 389 kts | 4° |
| 2026-04-28 18:23 | 57.70891 | 4.86957 | 34545 ft | 389 kts | 4° |
| 2026-04-28 18:23 | 57.76299 | 4.87260 | 34549 ft | 389 kts | 4° |
| 2026-04-28 18:24 | 57.80793 | 4.87516 | 34548 ft | 389 kts | 4° |
| 2026-04-28 18:24 | 57.87069 | 4.87872 | 34548 ft | 388 kts | 4° |
| 2026-04-28 18:25 | 57.92461 | 4.88180 | 34516 ft | 388 kts | 4° |
| 2026-04-28 18:26 | 58.00607 | 4.88652 | 34547 ft | 391 kts | 4° |
| 2026-04-28 18:26 | 58.06044 | 4.88963 | 34549 ft | 391 kts | 4° |
| 2026-04-28 18:27 | 58.11448 | 4.89277 | 34542 ft | 391 kts | 4° |
| 2026-04-28 18:27 | 58.16871 | 4.89591 | 34545 ft | 390 kts | 4° |
| 2026-04-28 18:28 | 58.22301 | 4.89909 | 34548 ft | 390 kts | 4° |
| 2026-04-28 18:28 | 58.27727 | 4.90223 | 34552 ft | 389 kts | 4° |
| 2026-04-28 18:29 | 58.33073 | 4.90541 | 34545 ft | 384 kts | 4° |
| 2026-04-28 18:29 | 58.38440 | 4.90864 | 34544 ft | 390 kts | 4° |
| 2026-04-28 18:30 | 58.43850 | 4.91426 | 34545 ft | 389 kts | 6° |
| 2026-04-28 18:30 | 58.49251 | 4.92220 | 34548 ft | 390 kts | 6° |
| 2026-04-28 18:31 | 58.54598 | 4.92992 | 33686 ft | 383 kts | 6° |
| 2026-04-28 18:31 | 58.57269 | 4.93377 | 32659 ft | 387 kts | 6° |
| 2026-04-28 18:31 | 58.59927 | 4.93760 | 31662 ft | 391 kts | 6° |
| 2026-04-28 18:31 | 58.62660 | 4.94155 | 30643 ft | 396 kts | 6° |
| 2026-04-28 18:32 | 58.65428 | 4.94554 | 29433 ft | 401 kts | 6° |
| 2026-04-28 18:32 | 58.68224 | 4.94958 | 28216 ft | 406 kts | 5° |
| 2026-04-28 18:32 | 58.71064 | 4.95365 | 26963 ft | 412 kts | 5° |
| 2026-04-28 18:32 | 58.73952 | 4.95777 | 25687 ft | 419 kts | 5° |
| 2026-04-28 18:33 | 58.76880 | 4.96198 | 24416 ft | 426 kts | 5° |
| 2026-04-28 18:33 | 58.79852 | 4.96630 | 23214 ft | 428 kts | 5° |
| 2026-04-28 18:33 | 58.82803 | 4.97059 | 22294 ft | 423 kts | 5° |
| 2026-04-28 18:33 | 58.85714 | 4.97480 | 21465 ft | 416 kts | 5° |
| 2026-04-28 18:34 | 58.88581 | 4.97895 | 20669 ft | 410 kts | 5° |
| 2026-04-28 18:34 | 58.91408 | 4.98302 | 19854 ft | 405 kts | 5° |
| 2026-04-28 18:34 | 58.94179 | 4.98703 | 19155 ft | 402 kts | 5° |
| 2026-04-28 18:34 | 58.96957 | 4.99099 | 18772 ft | 399 kts | 5° |
| 2026-04-28 18:35 | 58.99723 | 4.99505 | 18597 ft | 399 kts | 5° |
| 2026-04-28 18:35 | 59.02490 | 4.99914 | 18541 ft | 399 kts | 5° |
| 2026-04-28 18:35 | 59.05254 | 5.00322 | 18533 ft | 399 kts | 5° |
| 2026-04-28 18:35 | 59.07973 | 5.00723 | 18147 ft | 386 kts | 5° |
| 2026-04-28 18:36 | 59.10651 | 5.01120 | 17094 ft | 386 kts | 5° |
| 2026-04-28 18:36 | 59.13323 | 5.01515 | 16170 ft | 385 kts | 5° |
| 2026-04-28 18:36 | 59.15987 | 5.01909 | 15345 ft | 382 kts | 5° |
| 2026-04-28 18:36 | 59.18590 | 5.02295 | 14575 ft | 378 kts | 5° |
| 2026-04-28 18:37 | 59.21198 | 5.02686 | 13734 ft | 375 kts | 5° |
| 2026-04-28 18:37 | 59.23777 | 5.03277 | 12901 ft | 372 kts | 8° |
| 2026-04-28 18:37 | 59.26320 | 5.03994 | 12246 ft | 365 kts | 8° |
| 2026-04-28 18:37 | 59.28776 | 5.04700 | 11936 ft | 349 kts | 8° |
| 2026-04-28 18:38 | 59.31130 | 5.05355 | 11711 ft | 334 kts | 8° |
| 2026-04-28 18:38 | 59.33377 | 5.05979 | 11526 ft | 319 kts | 8° |
| 2026-04-28 18:38 | 59.35521 | 5.06580 | 11366 ft | 305 kts | 8° |
| 2026-04-28 18:38 | 59.37573 | 5.07155 | 11216 ft | 291 kts | 8° |
| 2026-04-28 18:39 | 59.39536 | 5.07698 | 11092 ft | 279 kts | 8° |
| 2026-04-28 18:39 | 59.41392 | 5.08209 | 10941 ft | 267 kts | 8° |
| 2026-04-28 18:39 | 59.43209 | 5.08713 | 10680 ft | 262 kts | 8° |
| 2026-04-28 18:39 | 59.45008 | 5.09214 | 10521 ft | 262 kts | 8° |
| 2026-04-28 18:40 | 59.46813 | 5.09718 | 10503 ft | 262 kts | 8° |
| 2026-04-28 18:40 | 59.48616 | 5.10223 | 10511 ft | 262 kts | 8° |
| 2026-04-28 18:40 | 59.50417 | 5.10729 | 10521 ft | 262 kts | 7° |
| 2026-04-28 18:40 | 59.52217 | 5.11235 | 10529 ft | 262 kts | 7° |
| 2026-04-28 18:41 | 59.54023 | 5.11742 | 10531 ft | 262 kts | 7° |
| 2026-04-28 18:41 | 59.55825 | 5.12248 | 10532 ft | 262 kts | 7° |
| 2026-04-28 18:41 | 59.57633 | 5.12757 | 10533 ft | 262 kts | 7° |
| 2026-04-28 18:41 | 59.59440 | 5.13263 | 10534 ft | 262 kts | 7° |
| 2026-04-28 18:42 | 59.61241 | 5.13770 | 10535 ft | 262 kts | 7° |
| 2026-04-28 18:42 | 59.63047 | 5.14278 | 10536 ft | 262 kts | 7° |
| 2026-04-28 18:42 | 59.64826 | 5.14781 | 10538 ft | 262 kts | 7° |
| 2026-04-28 18:42 | 59.66632 | 5.15291 | 10538 ft | 262 kts | 7° |
| 2026-04-28 18:43 | 59.68436 | 5.15801 | 10539 ft | 262 kts | 7° |
| 2026-04-28 18:43 | 59.70239 | 5.16309 | 10538 ft | 260 kts | 7° |
| 2026-04-28 18:43 | 59.72013 | 5.16814 | 10200 ft | 256 kts | 7° |
| 2026-04-28 18:43 | 59.73779 | 5.17321 | 9758 ft | 256 kts | 7° |
| 2026-04-28 18:44 | 59.75545 | 5.17824 | 9325 ft | 256 kts | 7° |
| 2026-04-28 18:44 | 59.79070 | 5.18827 | 8482 ft | 255 kts | 7° |
| 2026-04-28 18:44 | 59.80825 | 5.19326 | 8082 ft | 255 kts | 7° |
| 2026-04-28 18:45 | 59.82564 | 5.19821 | 7805 ft | 249 kts | 7° |
| 2026-04-28 18:45 | 59.84225 | 5.20294 | 7658 ft | 239 kts | 7° |
| 2026-04-28 18:45 | 59.85831 | 5.20756 | 7542 ft | 228 kts | 7° |
| 2026-04-28 18:45 | 59.87372 | 5.21199 | 7331 ft | 222 kts | 7° |
| 2026-04-28 18:46 | 59.88890 | 5.21634 | 7024 ft | 220 kts | 7° |
| 2026-04-28 18:46 | 59.90402 | 5.22066 | 6707 ft | 218 kts | 7° |
| 2026-04-28 18:46 | 59.91872 | 5.22492 | 6520 ft | 209 kts | 7° |
| 2026-04-28 18:46 | 59.93274 | 5.22898 | 6312 ft | 200 kts | 7° |
| 2026-04-28 18:47 | 59.94637 | 5.23290 | 5987 ft | 196 kts | 7° |
| 2026-04-28 18:47 | 59.95981 | 5.23673 | 5613 ft | 195 kts | 7° |
| 2026-04-28 18:47 | 59.97308 | 5.24058 | 5231 ft | 195 kts | 7° |
| 2026-04-28 18:47 | 59.98651 | 5.24447 | 4845 ft | 195 kts | 7° |
| 2026-04-28 18:48 | 59.99990 | 5.24832 | 4480 ft | 194 kts | 7° |
| 2026-04-28 18:48 | 60.01328 | 5.25179 | 4130 ft | 194 kts | 6° |
| 2026-04-28 18:48 | 60.02646 | 5.25520 | 3918 ft | 187 kts | 6° |
| 2026-04-28 18:48 | 60.03896 | 5.25864 | 3750 ft | 177 kts | 7° |
| 2026-04-28 18:49 | 60.05089 | 5.26207 | 3490 ft | 171 kts | 7° |
| 2026-04-28 18:49 | 60.05471 | 5.26317 | 3390 ft | 170 kts | 7° |
| 2026-04-28 18:49 | 60.07432 | 5.26881 | 2990 ft | 171 kts | 7° |
| 2026-04-28 18:49 | 60.08608 | 5.27221 | 2969 ft | 170 kts | 7° |
| 2026-04-28 18:50 | 60.09759 | 5.27576 | 2977 ft | 170 kts | 8° |
| 2026-04-28 18:50 | 60.10923 | 5.27867 | 2975 ft | 162 kts | 359° |
| 2026-04-28 18:50 | 60.11981 | 5.27681 | 3000 ft | 150 kts | 349° |
| 2026-04-28 18:50 | 60.13007 | 5.27297 | 3004 ft | 150 kts | 351° |
| 2026-04-28 18:51 | 60.14033 | 5.26945 | 2977 ft | 149 kts | 351° |
| 2026-04-28 18:51 | 60.15061 | 5.26601 | 2850 ft | 150 kts | 350° |
| 2026-04-28 18:51 | 60.16084 | 5.26258 | 2692 ft | 149 kts | 350° |
| 2026-04-28 18:51 | 60.17108 | 5.25916 | 2517 ft | 148 kts | 351° |
| 2026-04-28 18:52 | 60.18121 | 5.25578 | 2300 ft | 148 kts | 351° |
| 2026-04-28 18:52 | 60.19118 | 5.25246 | 2083 ft | 147 kts | 351° |
| 2026-04-28 18:52 | 60.20135 | 5.24907 | 1862 ft | 148 kts | 351° |
| 2026-04-28 18:52 | 60.21146 | 5.24569 | 1657 ft | 147 kts | 350° |
| 2026-04-28 18:53 | 60.22153 | 5.24232 | 1449 ft | 147 kts | 350° |
| 2026-04-28 18:53 | 60.23172 | 5.23891 | 1232 ft | 149 kts | 350° |
| 2026-04-28 18:53 | 60.24112 | 5.23577 | 1013 ft | 128 kts | 349° |
| 2026-04-28 18:53 | 60.24970 | 5.23289 | 853 ft | 124 kts | 348° |
| 2026-04-28 18:54 | 60.25826 | 5.23001 | 697 ft | 125 kts | 348° |
| 2026-04-28 18:54 | 60.26673 | 5.22717 | 525 ft | 125 kts | 347° |
| 2026-04-28 18:54 | 60.27523 | 5.22423 | 373 ft | 123 kts | 346° |
| 2026-04-28 18:54 | 60.28369 | 5.22144 | 214 ft | 124 kts | 347° |
| 2026-04-28 18:55 | 60.29141 | 5.21881 | 165 ft | 81 kts | 351° |
| 2026-04-28 18:55 | 60.29356 | 5.21831 | 160 ft | 23 kts | 39° |
| 2026-04-28 18:55 | 60.29385 | 5.21919 | 160 ft | 0 kts | 85° |
| 2026-04-28 18:55 | 60.29387 | 5.21950 | 161 ft | 5 kts | 85° |
| 2026-04-28 18:56 | 60.29389 | 5.22068 | 165 ft | 12 kts | 101° |
| 2026-04-28 18:56 | 60.29306 | 5.22154 | 170 ft | 17 kts | 170° |
| 2026-04-28 18:56 | 60.29168 | 5.22198 | 176 ft | 22 kts | 169° |
| 2026-04-28 18:56 | 60.29069 | 5.22335 | 182 ft | 19 kts | 139° |
| 2026-04-28 18:57 | 60.29042 | 5.22558 | 181 ft | 13 kts | 79° |
| 2026-04-28 18:57 | 60.29040 | 5.22573 | 181 ft | 2 kts | 113° |
| 2026-04-28 18:57 | 60.29015 | 5.22585 | 181 ft | 6 kts | 155° |
| 2026-04-28 18:57 | 60.28993 | 5.22621 | 180 ft | 3 kts | 140° |
| 2026-04-28 18:58 | 60.28987 | 5.22630 | 180 ft | 0 kts | 150° |